Time;durP1;ratioP1;P1;durP2;ratioP2;P2;SDS_P1;SDS_P2;PMS_P1;PMS_P2;Temp;Humidity;BMP_temperature;BMP_pressure;BME280_temperature;BME280_humidity;BME280_pressure;Samples;Min_cycle;Max_cycle;Signal;HPM_P1;HPM_P2
2024/02/28 00:00:14;;;;;;;22.30;14.83;;;6.30;1.00;;;;;;5098885;28;20485;-79
2024/02/28 00:02:43;;;;;;;21.38;14.65;;;6.30;1.00;;;;;;5098322;28;20442;-79
2024/02/28 00:05:10;;;;;;;18.93;14.87;;;6.30;1.00;;;;;;5094863;28;20714;-79
2024/02/28 00:07:37;;;;;;;20.37;14.57;;;6.40;1.00;;;;;;5094666;28;20536;-78
2024/02/28 00:10:05;;;;;;;19.80;13.77;;;6.40;1.00;;;;;;5095799;28;20453;-79
2024/02/28 00:12:32;;;;;;;15.53;13.50;;;6.30;1.00;;;;;;5098453;28;20290;-79
2024/02/28 00:14:59;;;;;;;21.63;14.50;;;6.20;1.00;;;;;;5095939;28;20503;-79
2024/02/28 00:17:25;;;;;;;20.75;14.98;;;6.20;1.00;;;;;;5096180;27;20236;-78
2024/02/28 00:19:54;;;;;;;21.37;13.43;;;6.20;1.00;;;;;;5095820;28;20241;-78
2024/02/28 00:22:21;;;;;;;18.90;13.50;;;6.20;1.00;;;;;;5095295;28;21223;-77
2024/02/28 00:24:48;;;;;;;21.52;13.93;;;6.20;1.00;;;;;;5096532;28;20558;-78
2024/02/28 00:27:15;;;;;;;21.20;13.57;;;6.10;1.00;;;;;;5098454;28;20292;-77
2024/02/28 00:29:42;;;;;;;17.58;12.40;;;6.10;1.00;;;;;;5096052;28;20327;-79
2024/02/28 00:32:09;;;;;;;19.33;13.48;;;6.10;1.00;;;;;;5095670;27;20332;-79
2024/02/28 00:34:36;;;;;;;18.63;13.77;;;6.10;1.00;;;;;;5090694;27;20240;-78
2024/02/28 00:37:04;;;;;;;20.77;13.52;;;6.10;1.00;;;;;;5100267;27;20733;-80
2024/02/28 00:39:31;;;;;;;19.80;14.55;;;6.00;1.00;;;;;;5101123;27;20325;-77
2024/02/28 00:41:58;;;;;;;18.98;14.35;;;6.10;1.00;;;;;;5098649;27;20226;-78
2024/02/28 00:44:25;;;;;;;20.40;14.55;;;6.10;1.00;;;;;;5093430;28;20238;-77
2024/02/28 00:46:52;;;;;;;20.00;13.10;;;6.10;1.00;;;;;;5094726;28;20266;-77
2024/02/28 00:49:19;;;;;;;19.35;14.27;;;6.10;1.00;;;;;;5094697;28;21014;-79
2024/02/28 00:51:47;;;;;;;21.30;13.40;;;6.10;1.00;;;;;;5104871;27;20242;-79
2024/02/28 00:54:16;;;;;;;19.23;13.70;;;6.10;1.00;;;;;;5110223;27;20813;-79
2024/02/28 00:56:43;;;;;;;18.10;12.60;;;6.10;1.00;;;;;;5114377;27;20453;-79
2024/02/28 00:59:11;;;;;;;21.40;13.13;;;6.10;1.00;;;;;;5112097;27;20243;-78
2024/02/28 01:01:37;;;;;;;16.35;12.65;;;6.00;1.00;;;;;;5111473;27;21228;-79
2024/02/28 01:04:04;;;;;;;20.17;14.80;;;6.00;1.00;;;;;;5093832;28;20288;-78
2024/02/28 01:06:31;;;;;;;19.83;14.98;;;6.00;1.00;;;;;;5093099;28;20274;-78
2024/02/28 01:08:58;;;;;;;18.13;13.13;;;6.00;1.00;;;;;;5087280;28;20698;-79
2024/02/28 01:11:27;;;;;;;20.42;13.88;;;5.90;1.00;;;;;;5094886;28;20248;-79
2024/02/28 01:13:54;;;;;;;18.52;14.13;;;5.90;1.00;;;;;;5096558;27;20237;-78
2024/02/28 01:16:21;;;;;;;20.40;13.15;;;5.90;1.00;;;;;;5091804;28;20279;-79
2024/02/28 01:18:48;;;;;;;18.63;12.77;;;5.80;1.00;;;;;;5097646;28;20426;-80
2024/02/28 01:21:15;;;;;;;19.08;12.55;;;5.80;1.00;;;;;;5116311;27;20332;-79
2024/02/28 01:23:41;;;;;;;23.38;15.27;;;5.80;1.00;;;;;;5096516;28;20320;-78
2024/02/28 01:26:08;;;;;;;19.27;12.63;;;5.90;1.00;;;;;;5090258;28;20328;-78
2024/02/28 01:28:37;;;;;;;18.92;13.38;;;5.90;1.00;;;;;;5096448;28;20329;-77
2024/02/28 01:31:05;;;;;;;19.00;12.88;;;5.90;1.00;;;;;;5091224;27;20936;-78
2024/02/28 01:33:32;;;;;;;20.23;14.13;;;5.80;1.00;;;;;;5122168;27;20263;-79
2024/02/28 01:35:59;;;;;;;18.48;13.02;;;5.80;1.00;;;;;;5098192;27;20233;-78
2024/02/28 01:38:27;;;;;;;23.05;13.68;;;5.80;1.00;;;;;;5097003;28;21008;-78
2024/02/28 01:40:54;;;;;;;18.65;12.75;;;5.80;1.00;;;;;;5094544;28;20332;-77
2024/02/28 01:43:21;;;;;;;20.20;12.68;;;5.80;1.00;;;;;;5095025;28;20259;-79
2024/02/28 01:45:50;;;;;;;18.58;13.57;;;5.80;1.00;;;;;;5094768;28;20260;-79
2024/02/28 01:48:17;;;;;;;21.73;13.05;;;5.80;1.00;;;;;;5091130;28;20247;-79
2024/02/28 01:50:45;;;;;;;19.70;13.38;;;5.80;1.00;;;;;;5095191;28;20259;-79
2024/02/28 01:53:13;;;;;;;17.23;13.05;;;5.80;1.00;;;;;;5094260;28;20271;-79
2024/02/28 01:55:41;;;;;;;20.67;13.57;;;5.80;1.00;;;;;;5093269;28;20244;-79
2024/02/28 01:58:08;;;;;;;18.45;13.02;;;5.80;1.00;;;;;;5102860;27;20237;-79
2024/02/28 02:00:35;;;;;;;15.07;11.68;;;5.90;1.00;;;;;;5111100;27;20235;-78
2024/02/28 02:03:04;;;;;;;21.25;12.77;;;5.80;1.00;;;;;;5114012;27;20264;-77
2024/02/28 02:05:31;;;;;;;18.13;13.20;;;5.90;1.00;;;;;;5112730;27;20328;-77
2024/02/28 02:07:59;;;;;;;17.23;11.70;;;6.00;1.00;;;;;;5114146;27;20236;-78
2024/02/28 02:10:27;;;;;;;17.38;12.98;;;6.00;1.00;;;;;;5113405;27;20803;-79
2024/02/28 02:12:54;;;;;;;17.48;11.85;;;6.00;1.00;;;;;;5110226;27;20260;-77
2024/02/28 02:15:21;;;;;;;16.10;12.53;;;6.10;1.00;;;;;;5099907;28;20290;-79
2024/02/28 02:17:47;;;;;;;16.43;11.37;;;6.10;1.00;;;;;;5098714;28;21177;-79
2024/02/28 02:20:19;;;;;;;14.17;10.73;;;6.20;1.00;;;;;;5112702;27;20543;-79
2024/02/28 02:22:47;;;;;;;13.70;10.00;;;6.20;1.00;;;;;;5114760;27;20947;-78
2024/02/28 02:25:15;;;;;;;15.00;10.73;;;6.20;1.00;;;;;;5115558;27;21150;-79
2024/02/28 02:27:42;;;;;;;17.80;11.30;;;6.20;1.00;;;;;;5112768;27;20514;-78
2024/02/28 02:30:10;;;;;;;15.10;10.03;;;6.20;1.00;;;;;;5099280;27;20471;-77
2024/02/28 02:32:37;;;;;;;14.05;10.60;;;6.10;1.00;;;;;;5101240;28;20465;-78
2024/02/28 02:35:05;;;;;;;16.13;11.70;;;6.00;1.00;;;;;;5102055;27;20242;-78
2024/02/28 02:37:31;;;;;;;15.88;10.90;;;6.00;1.00;;;;;;5101772;28;20238;-76
2024/02/28 02:40:00;;;;;;;14.15;11.35;;;6.00;1.00;;;;;;5095829;28;20264;-79
2024/02/28 02:42:27;;;;;;;15.40;10.15;;;5.90;1.00;;;;;;5096299;28;20243;-76
2024/02/28 02:44:54;;;;;;;13.37;9.17;;;5.90;1.00;;;;;;5098213;28;21134;-78
2024/02/28 02:47:21;;;;;;;11.45;8.82;;;5.90;1.00;;;;;;5097488;28;20483;-79
2024/02/28 02:49:48;;;;;;;13.40;9.10;;;5.90;1.00;;;;;;5102945;28;20295;-79
2024/02/28 02:52:14;;;;;;;15.75;9.70;;;5.90;1.00;;;;;;5098872;28;20242;-79
2024/02/28 02:54:41;;;;;;;16.23;8.98;;;6.00;1.00;;;;;;5108748;27;20256;-79
2024/02/28 02:57:10;;;;;;;12.27;9.60;;;6.00;1.00;;;;;;5096654;28;20239;-76
2024/02/28 02:59:37;;;;;;;15.27;10.98;;;6.10;1.00;;;;;;5097135;28;20236;-78
2024/02/28 03:02:04;;;;;;;13.45;10.32;;;6.10;1.00;;;;;;5095055;28;20257;-78
2024/02/28 03:04:31;;;;;;;11.18;9.48;;;6.10;1.00;;;;;;5098843;28;20324;-79
2024/02/28 03:06:58;;;;;;;13.02;9.30;;;6.00;1.00;;;;;;5096378;28;20300;-77
2024/02/28 03:09:25;;;;;;;11.57;9.32;;;5.90;1.00;;;;;;5100398;28;20319;-78
2024/02/28 03:11:52;;;;;;;12.90;9.63;;;5.80;1.00;;;;;;5108268;27;20236;-79
2024/02/28 03:14:22;;;;;;;12.18;8.88;;;5.70;1.00;;;;;;5098567;28;20393;-79
2024/02/28 03:16:49;;;;;;;13.75;8.18;;;5.70;1.00;;;;;;5096576;28;20233;-77
2024/02/28 03:19:16;;;;;;;13.82;9.07;;;5.60;1.00;;;;;;5094733;28;20713;-78
2024/02/28 03:21:43;;;;;;;12.80;8.80;;;5.60;1.00;;;;;;5094709;28;20314;-78
2024/02/28 03:24:10;;;;;;;13.00;9.27;;;5.60;1.00;;;;;;5107948;27;20329;-77
2024/02/28 03:26:37;;;;;;;12.25;8.73;;;5.60;1.00;;;;;;5105086;27;20268;-79
2024/02/28 03:29:04;;;;;;;11.23;8.27;;;5.70;1.00;;;;;;5100629;27;20287;-79
2024/02/28 03:31:32;;;;;;;11.10;8.45;;;5.60;1.00;;;;;;5098009;28;20235;-77
2024/02/28 03:33:59;;;;;;;11.30;8.10;;;5.60;1.00;;;;;;5108539;27;20349;-80
2024/02/28 03:36:26;;;;;;;10.07;7.70;;;5.60;1.00;;;;;;5095509;28;20325;-78
2024/02/28 03:38:53;;;;;;;10.85;8.27;;;5.60;1.00;;;;;;5097716;28;20298;-77
2024/02/28 03:41:27;;;;;;;10.98;7.80;;;5.50;1.00;;;;;;5108257;27;20319;-77
2024/02/28 03:43:54;;;;;;;11.82;7.60;;;5.50;1.00;;;;;;5094472;28;20320;-80
2024/02/28 03:46:21;;;;;;;9.82;8.50;;;5.50;1.00;;;;;;5096594;28;20307;-80
2024/02/28 03:48:50;;;;;;;12.55;8.05;;;5.50;1.00;;;;;;5107754;27;20794;-78
2024/02/28 03:51:17;;;;;;;9.43;7.35;;;5.50;1.00;;;;;;5095361;28;20233;-77
2024/02/28 03:53:44;;;;;;;10.15;7.57;;;5.50;1.00;;;;;;5098608;28;20232;-78
2024/02/28 03:56:11;;;;;;;9.20;7.35;;;5.60;1.00;;;;;;5092274;28;20269;-79
2024/02/28 03:58:38;;;;;;;8.45;6.90;;;5.40;1.00;;;;;;5095848;28;20298;-78
2024/02/28 04:01:05;;;;;;;10.60;7.68;;;5.50;1.00;;;;;;5096051;28;20245;-78
2024/02/28 04:03:32;;;;;;;10.55;7.60;;;5.50;1.00;;;;;;5095326;28;20236;-78
2024/02/28 04:06:00;;;;;;;10.80;7.60;;;5.50;1.00;;;;;;5101358;27;20234;-80
2024/02/28 04:08:27;;;;;;;11.88;7.40;;;5.60;1.00;;;;;;5095666;28;20236;-79
2024/02/28 04:10:54;;;;;;;9.00;6.35;;;5.60;1.00;;;;;;5093466;28;20340;-78
2024/02/28 04:13:21;;;;;;;10.93;7.03;;;5.60;1.00;;;;;;5116441;27;20278;-79
2024/02/28 04:15:49;;;;;;;8.70;6.53;;;5.60;1.00;;;;;;5116132;27;20248;-78
2024/02/28 04:18:16;;;;;;;10.63;6.70;;;5.60;1.00;;;;;;5105512;27;20235;-78
2024/02/28 04:20:42;;;;;;;11.68;8.20;;;5.60;1.00;;;;;;5117286;27;20240;-78
2024/02/28 04:23:11;;;;;;;10.52;7.97;;;5.50;1.00;;;;;;5109392;27;20232;-78
2024/02/28 04:25:40;;;;;;;10.05;6.85;;;5.50;1.00;;;;;;5096059;28;20336;-78
2024/02/28 04:28:08;;;;;;;10.70;7.00;;;5.50;1.00;;;;;;5095722;28;20622;-79
2024/02/28 04:30:35;;;;;;;11.00;6.78;;;5.60;1.00;;;;;;5109148;27;20271;-79
2024/02/28 04:33:02;;;;;;;8.55;6.53;;;5.60;1.00;;;;;;5092814;27;20332;-77
2024/02/28 04:35:29;;;;;;;13.55;7.60;;;5.60;1.00;;;;;;5107433;27;20307;-77
2024/02/28 04:37:56;;;;;;;9.73;6.47;;;5.50;1.00;;;;;;5114313;27;20229;-79
2024/02/28 04:40:24;;;;;;;7.63;6.30;;;5.60;1.00;;;;;;5116899;27;20235;-78
2024/02/28 04:42:52;;;;;;;11.25;6.80;;;5.60;1.00;;;;;;5106473;27;20275;-77
2024/02/28 04:45:19;;;;;;;7.90;5.18;;;5.70;1.00;;;;;;5100708;28;20232;-78
2024/02/28 04:47:46;;;;;;;9.18;6.20;;;5.70;1.00;;;;;;5094410;28;20299;-79
2024/02/28 04:50:15;;;;;;;13.98;7.00;;;5.70;1.00;;;;;;5108442;27;20247;-78
2024/02/28 04:52:42;;;;;;;5.80;4.45;;;5.70;1.00;;;;;;5096499;28;20332;-78
2024/02/28 04:55:09;;;;;;;9.50;7.00;;;5.70;1.00;;;;;;5096475;28;20241;-78
2024/02/28 04:57:38;;;;;;;8.43;5.35;;;5.80;1.00;;;;;;5095272;28;20725;-79
2024/02/28 05:00:07;;;;;;;7.95;4.70;;;5.70;1.00;;;;;;5090491;27;20321;-78
2024/02/28 05:02:34;;;;;;;9.93;6.32;;;5.70;1.00;;;;;;5090957;28;20237;-74
2024/02/28 05:05:01;;;;;;;9.13;6.78;;;5.80;1.00;;;;;;5104610;27;20241;-74
2024/02/28 05:07:28;;;;;;;6.07;4.60;;;5.70;1.00;;;;;;5089428;28;20947;-75
2024/02/28 05:09:55;;;;;;;8.68;5.28;;;5.70;1.00;;;;;;5091695;28;20265;-75
2024/02/28 05:12:25;;;;;;;7.07;5.40;;;5.80;1.00;;;;;;5090115;28;20307;-75
2024/02/28 05:14:53;;;;;;;8.57;5.50;;;5.80;1.00;;;;;;5090976;28;20762;-74
2024/02/28 05:17:20;;;;;;;7.22;5.20;;;5.90;1.00;;;;;;5093753;28;20439;-74
2024/02/28 05:19:49;;;;;;;14.18;7.05;;;5.90;1.00;;;;;;5093093;28;20260;-75
2024/02/28 05:22:16;;;;;;;8.55;5.68;;;5.90;1.00;;;;;;5087883;28;20322;-75
2024/02/28 05:24:43;;;;;;;7.30;5.20;;;5.80;1.00;;;;;;5098867;27;20249;-75
2024/02/28 05:27:10;;;;;;;8.00;5.95;;;5.80;1.00;;;;;;5101973;27;20461;-75
2024/02/28 05:29:37;;;;;;;6.10;5.10;;;5.80;1.00;;;;;;5091136;28;20325;-75
2024/02/28 05:32:06;;;;;;;7.30;6.60;;;5.80;1.00;;;;;;5095558;27;20378;-76
2024/02/28 05:34:33;;;;;;;10.85;7.45;;;5.80;1.00;;;;;;5099198;28;20236;-76
2024/02/28 05:37:00;;;;;;;9.88;7.43;;;5.70;1.00;;;;;;5089640;28;20257;-76
2024/02/28 05:39:29;;;;;;;9.68;7.53;;;5.60;1.00;;;;;;5106532;27;20291;-74
2024/02/28 05:41:56;;;;;;;22.42;13.10;;;5.50;1.00;;;;;;5117130;27;20293;-77
2024/02/28 05:44:24;;;;;;;12.13;9.25;;;5.50;1.00;;;;;;5112183;27;20716;-76
2024/02/28 05:46:51;;;;;;;8.05;6.90;;;5.50;1.00;;;;;;5116551;27;21002;-76
2024/02/28 05:49:19;;;;;;;8.93;6.60;;;5.40;1.00;;;;;;5119009;27;20241;-76
2024/02/28 05:51:46;;;;;;;13.00;7.50;;;5.40;1.00;;;;;;5120749;27;20912;-76
2024/02/28 05:54:14;;;;;;;11.93;7.22;;;5.40;1.00;;;;;;5121651;27;20280;-74
2024/02/28 05:56:41;;;;;;;11.48;7.53;;;5.40;1.00;;;;;;5118502;27;20259;-75
2024/02/28 05:59:08;;;;;;;9.52;7.35;;;5.40;1.00;;;;;;5108462;27;20274;-74
2024/02/28 06:01:35;;;;;;;9.40;7.40;;;5.50;1.00;;;;;;5115081;27;20327;-75
2024/02/28 06:04:02;;;;;;;11.05;7.05;;;5.50;1.00;;;;;;5119895;27;20507;-75
2024/02/28 06:06:30;;;;;;;13.48;8.77;;;5.50;1.00;;;;;;5118785;27;20269;-75
2024/02/28 06:08:59;;;;;;;7.97;6.60;;;5.50;1.00;;;;;;5099062;27;20328;-75
2024/02/28 06:11:26;;;;;;;9.75;5.80;;;5.60;1.00;;;;;;5089952;28;20746;-74
2024/02/28 06:13:56;;;;;;;21.77;11.80;;;5.60;1.00;;;;;;5091339;28;20237;-75
2024/02/28 06:16:24;;;;;;;13.25;6.70;;;5.60;1.00;;;;;;5089598;28;20247;-75
2024/02/28 06:18:50;;;;;;;15.13;7.38;;;5.70;1.00;;;;;;5090576;28;20268;-77
2024/02/28 06:21:18;;;;;;;8.20;6.95;;;5.60;1.00;;;;;;5112677;27;20268;-75
2024/02/28 06:23:45;;;;;;;11.43;8.20;;;5.60;1.00;;;;;;5100426;28;20898;-74
2024/02/28 06:26:16;;;;;;;10.43;7.05;;;5.50;1.00;;;;;;5092205;28;20291;-74
2024/02/28 06:28:45;;;;;;;12.25;8.90;;;5.50;1.00;;;;;;5089373;28;20237;-75
2024/02/28 06:31:16;;;;;;;13.40;7.80;;;5.50;1.00;;;;;;5091413;28;20793;-76
2024/02/28 06:33:44;;;;;;;12.15;7.82;;;5.50;1.00;;;;;;5103464;27;20264;-75
2024/02/28 06:36:11;;;;;;;10.02;6.63;;;5.40;1.00;;;;;;5096201;28;21136;-75
2024/02/28 06:38:38;;;;;;;9.75;5.65;;;5.40;1.00;;;;;;5102388;27;20733;-76
2024/02/28 06:41:08;;;;;;;9.85;7.30;;;5.30;1.00;;;;;;5107871;27;20285;-75
2024/02/28 06:43:35;;;;;;;15.40;7.85;;;5.40;1.00;;;;;;5113169;27;20236;-75
2024/02/28 06:46:02;;;;;;;11.73;7.47;;;5.30;1.00;;;;;;5114020;27;20321;-74
2024/02/28 06:48:29;;;;;;;15.05;8.40;;;5.40;1.00;;;;;;5096466;28;20323;-75
2024/02/28 06:50:59;;;;;;;11.25;8.20;;;5.40;1.00;;;;;;5092609;28;20254;-76
2024/02/28 06:53:27;;;;;;;12.10;8.70;;;5.50;1.00;;;;;;5091681;28;20227;-75
2024/02/28 06:55:54;;;;;;;9.60;7.90;;;5.50;1.00;;;;;;5092300;28;20343;-73
2024/02/28 06:58:24;;;;;;;9.68;7.57;;;5.50;1.00;;;;;;5088816;28;20347;-74
2024/02/28 07:00:51;;;;;;;12.55;9.40;;;5.50;1.00;;;;;;5091288;28;20243;-74
2024/02/28 07:03:18;;;;;;;20.48;11.65;;;5.50;1.00;;;;;;5092281;27;20233;-73
2024/02/28 07:05:46;;;;;;;11.70;9.23;;;5.50;1.00;;;;;;5096019;27;20697;-75
2024/02/28 07:08:13;;;;;;;12.98;9.98;;;5.50;1.00;;;;;;5095876;28;20268;-74
2024/02/28 07:10:43;;;;;;;21.55;14.77;;;5.50;1.00;;;;;;5104939;27;20229;-78
2024/02/28 07:13:10;;;;;;;22.30;12.85;;;5.40;1.00;;;;;;5106329;27;20503;-77
2024/02/28 07:15:39;;;;;;;14.73;10.32;;;5.50;1.00;;;;;;5096346;28;20327;-78
2024/02/28 07:18:09;;;;;;;13.13;11.00;;;5.50;1.00;;;;;;5094191;28;20347;-77
2024/02/28 07:20:39;;;;;;;16.95;10.68;;;5.50;1.00;;;;;;5095588;28;20245;-76
2024/02/28 07:23:06;;;;;;;22.00;14.55;;;5.50;1.00;;;;;;5073869;28;20448;-77
2024/02/28 07:25:33;;;;;;;19.05;14.15;;;5.50;1.00;;;;;;5095801;28;20238;-76
2024/02/28 07:28:00;;;;;;;19.77;13.50;;;5.50;1.00;;;;;;5094636;28;20317;-78
2024/02/28 07:30:28;;;;;;;25.80;15.27;;;5.50;1.00;;;;;;5091037;28;20242;-77
2024/02/28 07:32:56;;;;;;;22.05;13.75;;;5.50;1.00;;;;;;5091159;28;20295;-76
2024/02/28 07:35:25;;;;;;;19.20;14.32;;;5.50;1.00;;;;;;5087438;28;20288;-76
2024/02/28 07:37:51;;;;;;;17.35;14.02;;;5.50;1.00;;;;;;5092038;28;20964;-76
2024/02/28 07:40:19;;;;;;;20.30;13.40;;;5.60;1.00;;;;;;5094531;27;20229;-73
2024/02/28 07:42:46;;;;;;;18.42;13.20;;;5.50;1.00;;;;;;5117223;27;20253;-75
2024/02/28 07:45:15;;;;;;;15.15;12.20;;;5.50;1.00;;;;;;5115024;27;21057;-75
2024/02/28 07:47:42;;;;;;;23.88;14.32;;;5.50;1.00;;;;;;5094657;28;20245;-75
2024/02/28 07:50:10;;;;;;;18.23;13.45;;;5.60;1.00;;;;;;5091319;28;20244;-76
2024/02/28 07:52:37;;;;;;;20.35;12.73;;;5.50;1.00;;;;;;5097633;27;20330;-73
2024/02/28 07:55:06;;;;;;;19.05;13.75;;;5.60;1.00;;;;;;5092143;27;20237;-76
2024/02/28 07:57:34;;;;;;;21.65;13.50;;;5.60;1.00;;;;;;5100062;27;20263;-74
2024/02/28 08:00:01;;;;;;;14.10;12.60;;;5.60;1.00;;;;;;5094248;28;20253;-74
2024/02/28 08:02:28;;;;;;;19.52;12.57;;;5.60;1.00;;;;;;5093639;28;20310;-75
2024/02/28 08:04:55;;;;;;;35.63;12.85;;;5.60;1.00;;;;;;5094399;27;20274;-75
2024/02/28 08:07:23;;;;;;;17.80;14.93;;;5.50;1.00;;;;;;5109104;27;20336;-74
2024/02/28 08:09:50;;;;;;;14.65;12.93;;;5.50;1.00;;;;;;5113948;27;20509;-75
2024/02/28 08:12:20;;;;;;;19.92;14.07;;;5.50;1.00;;;;;;5113396;27;20243;-74
2024/02/28 08:14:48;;;;;;;21.77;14.32;;;5.50;1.00;;;;;;5102746;27;20244;-75
2024/02/28 08:17:15;;;;;;;14.98;10.95;;;5.50;1.00;;;;;;5086605;28;20444;-75
2024/02/28 08:19:42;;;;;;;14.57;10.70;;;5.50;1.00;;;;;;5087986;28;20248;-74
2024/02/28 08:22:10;;;;;;;11.15;9.45;;;5.50;1.00;;;;;;5089439;28;20324;-72
2024/02/28 08:24:39;;;;;;;21.85;10.27;;;5.40;1.00;;;;;;5113623;27;20243;-71
2024/02/28 08:27:06;;;;;;;13.32;8.88;;;5.30;1.00;;;;;;5091450;28;20299;-73
2024/02/28 08:29:35;;;;;;;10.95;8.70;;;5.30;1.00;;;;;;5087645;28;20323;-70
2024/02/28 08:32:02;;;;;;;19.02;9.75;;;5.20;1.00;;;;;;5110150;27;20235;-71
2024/02/28 08:34:29;;;;;;;14.20;11.30;;;5.20;1.00;;;;;;5093545;27;20750;-71
2024/02/28 08:36:56;;;;;;;14.73;12.30;;;5.30;1.00;;;;;;5088463;28;20305;-72
2024/02/28 08:39:24;;;;;;;17.88;12.90;;;5.30;1.00;;;;;;5090807;28;20265;-73
2024/02/28 08:41:53;;;;;;;20.88;13.40;;;5.30;1.00;;;;;;5091516;27;20235;-72
2024/02/28 08:44:20;;;;;;;15.25;11.73;;;5.30;1.00;;;;;;5095392;27;20958;-72
2024/02/28 08:46:47;;;;;;;20.05;13.13;;;5.30;1.00;;;;;;5089996;28;20325;-72
2024/02/28 08:49:14;;;;;;;14.35;11.73;;;5.20;1.00;;;;;;5091911;27;21149;-74
2024/02/28 08:51:42;;;;;;;40.00;15.80;;;5.20;1.00;;;;;;5089092;28;20242;-74
2024/02/28 08:54:09;;;;;;;21.88;15.65;;;5.20;1.00;;;;;;5098573;27;21058;-73
2024/02/28 08:56:36;;;;;;;19.30;13.52;;;5.20;1.00;;;;;;5091083;28;20262;-72
2024/02/28 08:59:04;;;;;;;14.00;12.30;;;5.10;1.00;;;;;;5087500;28;20272;-72
2024/02/28 09:01:33;;;;;;;17.60;12.50;;;5.20;1.00;;;;;;5087278;28;20260;-77
2024/02/28 09:04:00;;;;;;;13.98;10.35;;;5.30;1.00;;;;;;5089064;28;20228;-75
2024/02/28 09:06:28;;;;;;;13.60;10.98;;;5.40;1.00;;;;;;5101289;27;20331;-74
2024/02/28 09:08:55;;;;;;;13.32;9.50;;;5.30;1.00;;;;;;5112478;27;20264;-73
2024/02/28 09:11:22;;;;;;;13.23;10.93;;;5.30;1.00;;;;;;5115253;27;20289;-71
2024/02/28 09:13:48;;;;;;;13.15;9.80;;;5.40;1.00;;;;;;5103699;27;20810;-73
2024/02/28 09:16:17;;;;;;;14.93;11.40;;;5.50;1.00;;;;;;5109219;27;20236;-75
2024/02/28 09:18:44;;;;;;;23.08;15.52;;;5.60;1.00;;;;;;5109959;27;20236;-74
2024/02/28 09:21:11;;;;;;;16.50;12.35;;;5.60;1.00;;;;;;5081758;28;20243;-74
2024/02/28 09:23:38;;;;;;;20.70;12.85;;;5.50;1.00;;;;;;5088569;28;20267;-75
2024/02/28 09:26:05;;;;;;;17.23;13.02;;;5.50;1.00;;;;;;5095729;27;20235;-74
2024/02/28 09:28:32;;;;;;;15.07;12.40;;;5.50;1.00;;;;;;5087989;28;20297;-74
2024/02/28 09:30:59;;;;;;;15.68;12.95;;;5.40;1.00;;;;;;5092014;28;20229;-75
2024/02/28 09:33:29;;;;;;;19.45;13.52;;;5.40;1.00;;;;;;5090249;28;20356;-75
2024/02/28 09:35:56;;;;;;;16.35;13.20;;;5.40;1.00;;;;;;5093134;28;20323;-76
2024/02/28 09:38:23;;;;;;;16.65;13.48;;;5.50;1.00;;;;;;5096760;28;20294;-74
2024/02/28 09:40:50;;;;;;;21.70;14.40;;;5.50;1.00;;;;;;5093789;27;20237;-73
2024/02/28 09:43:29;;;;;;;22.75;15.10;;;5.40;1.00;;;;;;5099583;27;20259;-74
2024/02/28 09:46:00;;;;;;;18.05;14.30;;;5.30;1.00;;;;;;5088369;28;20333;-74
2024/02/28 09:48:30;;;;;;;24.35;15.10;;;5.10;1.00;;;;;;5088258;28;20802;-75
2024/02/28 09:50:58;;;;;;;16.38;13.90;;;5.00;1.00;;;;;;5085230;28;20294;-75
2024/02/28 09:53:25;;;;;;;21.60;14.30;;;4.90;1.00;;;;;;5089268;28;20246;-74
2024/02/28 09:55:52;;;;;;;18.67;14.95;;;4.90;1.00;;;;;;5084206;28;20240;-75
2024/02/28 09:58:21;;;;;;;20.88;16.15;;;5.10;1.00;;;;;;5089373;28;20323;-74
2024/02/28 10:00:48;;;;;;;23.25;16.33;;;5.20;1.00;;;;;;5088094;28;20248;-73
2024/02/28 10:03:19;;;;;;;22.50;16.25;;;5.20;1.00;;;;;;5086095;28;20713;-75
2024/02/28 10:05:48;;;;;;;28.10;16.98;;;5.20;1.00;;;;;;5082314;27;20244;-76
2024/02/28 10:08:15;;;;;;;21.88;16.15;;;5.30;1.00;;;;;;5101893;27;20310;-75
2024/02/28 10:10:48;;;;;;;24.58;17.90;;;5.30;1.00;;;;;;5097847;27;20236;-76
2024/02/28 10:13:17;;;;;;;22.48;15.68;;;5.30;1.00;;;;;;5082794;28;20239;-74
2024/02/28 10:15:44;;;;;;;27.30;18.00;;;5.30;1.00;;;;;;5086608;28;20240;-76
2024/02/28 10:18:11;;;;;;;22.65;15.65;;;5.30;1.00;;;;;;5090412;28;20233;-75
2024/02/28 10:20:38;;;;;;;28.35;21.00;;;5.30;1.00;;;;;;5092256;28;20240;-77
2024/02/28 10:23:08;;;;;;;24.67;18.27;;;5.30;1.00;;;;;;5087034;28;20271;-75
2024/02/28 10:25:44;;;;;;;23.65;16.48;;;5.30;1.00;;;;;;5085148;28;20236;-75
2024/02/28 10:28:11;;;;;;;23.90;17.38;;;5.30;1.00;;;;;;5093068;27;20235;-76
2024/02/28 10:30:40;;;;;;;21.88;17.95;;;5.30;1.00;;;;;;5105853;27;20240;-75
2024/02/28 10:33:13;;;;;;;25.35;17.70;;;5.40;1.00;;;;;;5093830;27;20744;-76
2024/02/28 10:35:40;;;;;;;23.27;16.92;;;5.40;1.00;;;;;;5100128;27;20235;-75
2024/02/28 10:38:08;;;;;;;21.25;15.40;;;5.40;1.00;;;;;;5112471;27;20753;-76
2024/02/28 10:40:36;;;;;;;22.98;14.73;;;5.30;1.00;;;;;;5113933;27;20237;-77
2024/02/28 10:43:06;;;;;;;17.15;12.32;;;5.30;1.00;;;;;;5111456;27;20236;-75
2024/02/28 10:45:33;;;;;;;27.05;13.55;;;5.20;1.00;;;;;;5114096;27;21083;-76
2024/02/28 10:48:01;;;;;;;28.60;15.70;;;5.20;1.00;;;;;;5111193;27;20239;-73
2024/02/28 10:50:28;;;;;;;19.45;14.85;;;5.20;1.00;;;;;;5112630;27;20233;-76
2024/02/28 10:53:00;;;;;;;26.13;15.82;;;5.40;1.00;;;;;;5100651;27;20232;-74
2024/02/28 10:55:34;;;;;;;24.98;16.23;;;5.40;1.00;;;;;;5090061;28;21691;-74
2024/02/28 10:58:04;;;;;;;21.48;15.27;;;5.40;1.00;;;;;;5101869;27;21153;-73
2024/02/28 11:00:32;;;;;;;20.27;14.88;;;5.50;1.00;;;;;;5099666;27;20237;-75
2024/02/28 11:03:03;;;;;;;21.05;14.75;;;5.50;1.00;;;;;;5105936;27;20334;-73
2024/02/28 11:05:38;;;;;;;20.45;13.93;;;5.60;1.00;;;;;;5106103;27;20241;-74
2024/02/28 11:08:06;;;;;;;21.67;15.75;;;5.60;1.00;;;;;;5110550;27;20236;-73
2024/02/28 11:10:34;;;;;;;20.85;15.85;;;5.70;1.00;;;;;;5107273;27;20271;-73
2024/02/28 11:13:02;;;;;;;26.58;17.60;;;5.60;1.00;;;;;;5104602;27;20236;-72
2024/02/28 11:15:30;;;;;;;27.35;20.17;;;5.60;1.00;;;;;;5107974;27;20248;-75
2024/02/28 11:18:11;;;;;;;20.63;16.40;;;5.60;1.00;;;;;;5110739;27;20232;-75
2024/02/28 11:20:38;;;;;;;21.65;14.77;;;5.60;1.00;;;;;;5113117;27;20298;-74
2024/02/28 11:23:10;;;;;;;20.75;15.35;;;5.70;1.00;;;;;;5113715;27;20374;-74
2024/02/28 11:25:39;;;;;;;27.08;17.00;;;5.70;1.00;;;;;;5113925;27;20323;-77
2024/02/28 11:28:07;;;;;;;20.02;14.70;;;5.70;1.00;;;;;;5096999;28;20675;-76
2024/02/28 11:30:34;;;;;;;21.88;16.13;;;5.70;1.00;;;;;;5113006;27;20285;-73
2024/02/28 11:33:01;;;;;;;29.92;20.30;;;5.70;1.00;;;;;;5099348;28;20260;-75
2024/02/28 11:35:28;;;;;;;23.42;14.73;;;5.70;1.00;;;;;;5100004;27;20278;-73
2024/02/28 11:37:57;;;;;;;26.60;18.20;;;5.80;1.00;;;;;;5091213;28;20249;-76
2024/02/28 11:40:25;;;;;;;31.92;19.77;;;5.90;1.00;;;;;;5103457;27;20245;-75
2024/02/28 11:42:55;;;;;;;27.45;18.80;;;6.00;1.00;;;;;;5094195;27;20258;-74
2024/02/28 11:45:22;;;;;;;27.00;16.45;;;6.10;1.00;;;;;;5115649;27;20728;-75
2024/02/28 11:47:49;;;;;;;20.10;13.85;;;6.10;1.00;;;;;;5079662;28;20238;-76
2024/02/28 11:50:18;;;;;;;21.00;14.68;;;6.10;1.00;;;;;;5113539;27;20307;-73
2024/02/28 11:52:46;;;;;;;22.90;17.58;;;6.20;1.00;;;;;;5112793;27;20248;-76
2024/02/28 11:55:13;;;;;;;20.55;15.52;;;6.10;1.00;;;;;;5100874;27;20244;-77
2024/02/28 11:57:40;;;;;;;18.52;15.77;;;6.10;1.00;;;;;;5095718;27;20230;-75
2024/02/28 12:00:12;;;;;;;24.38;16.25;;;6.10;1.00;;;;;;5091478;28;20768;-75
2024/02/28 12:02:39;;;;;;;21.63;16.83;;;6.20;1.00;;;;;;5086829;27;20240;-75
2024/02/28 12:05:09;;;;;;;22.98;16.15;;;6.30;1.00;;;;;;5094653;27;20269;-74
2024/02/28 12:07:39;;;;;;;24.92;16.52;;;6.30;1.00;;;;;;5102358;27;20241;-74
2024/02/28 12:10:09;;;;;;;25.15;19.92;;;6.30;1.00;;;;;;5099440;27;20235;-75
2024/02/28 12:12:36;;;;;;;19.85;16.17;;;6.30;1.00;;;;;;5091510;28;20263;-76
2024/02/28 12:15:06;;;;;;;24.85;15.02;;;6.30;1.00;;;;;;5086801;28;20238;-74
2024/02/28 12:17:37;;;;;;;17.93;14.37;;;6.30;1.00;;;;;;5089482;28;20245;-74
2024/02/28 12:20:06;;;;;;;23.52;15.75;;;6.30;1.00;;;;;;5093513;28;20555;-74
2024/02/28 12:22:33;;;;;;;22.63;16.17;;;6.30;1.00;;;;;;5090336;28;20237;-73
2024/02/28 12:25:04;;;;;;;18.08;14.48;;;6.20;1.00;;;;;;5100274;27;20241;-75
2024/02/28 12:27:31;;;;;;;19.75;15.27;;;6.30;1.00;;;;;;5092742;28;20241;-75
2024/02/28 12:29:58;;;;;;;20.67;14.55;;;6.30;1.00;;;;;;5099581;27;20235;-75
2024/02/28 12:32:25;;;;;;;20.13;14.80;;;6.50;1.00;;;;;;5100657;27;20240;-73
2024/02/28 12:34:54;;;;;;;26.23;15.80;;;6.70;1.00;;;;;;5086832;28;20245;-73
2024/02/28 12:37:21;;;;;;;16.65;13.73;;;6.80;1.00;;;;;;5091629;28;20455;-76
2024/02/28 12:39:49;;;;;;;16.63;12.90;;;6.90;1.00;;;;;;5090416;28;20967;-74
2024/02/28 12:42:15;;;;;;;21.48;13.98;;;7.00;1.00;;;;;;5101612;27;20468;-74
2024/02/28 12:44:45;;;;;;;17.20;12.98;;;7.10;1.00;;;;;;5104322;28;21085;-76
2024/02/28 12:47:13;;;;;;;21.87;13.30;;;7.20;1.00;;;;;;5111232;27;20663;-73
2024/02/28 12:49:40;;;;;;;18.20;14.20;;;7.20;1.00;;;;;;5093510;28;20467;-74
2024/02/28 12:52:11;;;;;;;20.48;12.30;;;7.10;1.00;;;;;;5095512;27;20477;-73